createdAt,value
2023-01-23T00:01:55.144Z,1029.41
2023-01-23T00:02:54.175Z,1029.38
2023-01-23T00:03:52.886Z,1029.36
2023-01-23T00:04:54.180Z,1029.42
2023-01-23T00:05:54.142Z,1029.41
2023-01-23T00:06:55.668Z,1029.40
2023-01-23T00:07:52.647Z,1029.39
2023-01-23T00:08:51.258Z,1029.38
2023-01-23T00:09:51.374Z,1029.37
2023-01-23T00:10:51.266Z,1029.40
2023-01-23T00:11:51.673Z,1029.33
2023-01-23T00:12:51.252Z,1029.38
2023-01-23T00:13:51.650Z,1029.43
2023-01-23T00:14:54.191Z,1029.42
2023-01-23T00:15:52.264Z,1029.47
2023-01-23T00:16:52.647Z,1029.46
2023-01-23T00:18:52.146Z,1029.45
2023-01-23T00:19:51.248Z,1029.46
2023-01-23T00:20:54.681Z,1029.45
2023-01-23T00:21:52.645Z,1029.50
2023-01-23T00:22:56.659Z,1029.47
2023-01-23T00:23:51.181Z,1029.46
2023-01-23T00:24:52.652Z,1029.49
2023-01-23T00:25:52.704Z,1029.44
2023-01-23T00:26:53.259Z,1029.43
2023-01-23T00:27:52.174Z,1029.45
2023-01-23T00:28:52.526Z,1029.43
2023-01-23T00:29:52.163Z,1029.46
2023-01-23T00:30:51.900Z,1029.42
2023-01-23T00:31:51.282Z,1029.43
2023-01-23T00:32:52.699Z,1029.40
2023-01-23T00:33:53.148Z,1029.40
2023-01-23T00:34:51.653Z,1029.41
2023-01-23T00:35:51.795Z,1029.40
2023-01-23T00:36:51.691Z,1029.35
2023-01-23T00:37:51.317Z,1029.32
2023-01-23T00:38:51.654Z,1029.28
2023-01-23T00:39:53.151Z,1029.31
2023-01-23T00:40:51.654Z,1029.34
2023-01-23T00:41:51.998Z,1029.34
2023-01-23T00:42:52.655Z,1029.29
2023-01-23T00:43:54.184Z,1029.35
2023-01-23T00:44:54.653Z,1029.42
2023-01-23T00:45:54.054Z,1029.43
2023-01-23T00:46:51.878Z,1029.44
2023-01-23T00:47:51.185Z,1029.45
2023-01-23T00:48:51.179Z,1029.43
2023-01-23T00:49:56.674Z,1029.45
2023-01-23T00:50:51.884Z,1029.48
2023-01-23T00:51:51.031Z,1029.50
2023-01-23T00:52:51.372Z,1029.48
2023-01-23T00:53:51.085Z,1029.53
2023-01-23T00:54:51.037Z,1029.55
2023-01-23T00:55:51.654Z,1029.53
2023-01-23T00:56:51.037Z,1029.53
2023-01-23T00:57:51.836Z,1029.55
2023-01-23T00:58:51.038Z,1029.55
2023-01-23T00:59:53.657Z,1029.57
2023-01-23T01:00:52.174Z,1029.58
2023-01-23T01:01:51.033Z,1029.59
2023-01-23T01:02:53.732Z,1029.60
2023-01-23T01:03:51.820Z,1029.63
2023-01-23T01:04:50.983Z,1029.63
2023-01-23T01:05:51.187Z,1029.62
2023-01-23T01:06:50.984Z,1029.64
2023-01-23T01:07:51.655Z,1029.64
2023-01-23T01:08:52.797Z,1029.69
2023-01-23T01:09:52.160Z,1029.69
2023-01-23T01:10:52.710Z,1029.66
2023-01-23T01:11:54.164Z,1029.69
2023-01-23T01:12:53.161Z,1029.71
2023-01-23T01:13:52.677Z,1029.77
2023-01-23T01:14:52.039Z,1029.66
2023-01-23T01:15:55.012Z,1029.74
2023-01-23T01:16:51.673Z,1029.74
2023-01-23T01:17:50.888Z,1029.77
2023-01-23T01:18:53.164Z,1029.74
2023-01-23T01:19:53.775Z,1029.79
2023-01-23T01:20:53.700Z,1029.79
2023-01-23T01:22:52.180Z,1029.74
2023-01-23T01:23:51.713Z,1029.75
2023-01-23T01:24:50.953Z,1029.74
2023-01-23T01:25:50.866Z,1029.73
2023-01-23T01:26:50.853Z,1029.71
2023-01-23T01:27:51.661Z,1029.73
2023-01-23T01:28:50.984Z,1029.74
2023-01-23T01:29:50.938Z,1029.75
2023-01-23T01:30:50.959Z,1029.79
2023-01-23T01:31:50.964Z,1029.76
2023-01-23T01:32:50.829Z,1029.76
2023-01-23T01:33:50.803Z,1029.77
2023-01-23T01:34:50.842Z,1029.82
2023-01-23T01:35:50.863Z,1029.87
2023-01-23T01:36:50.830Z,1029.95
2023-01-23T01:37:51.892Z,1029.95
2023-01-23T01:38:51.794Z,1029.98
2023-01-23T01:39:50.826Z,1029.99
2023-01-23T01:40:51.671Z,1030.00
2023-01-23T01:41:50.792Z,1029.96
2023-01-23T01:42:51.807Z,1030.05
2023-01-23T01:43:51.674Z,1030.01
2023-01-23T01:44:50.768Z,1029.96
2023-01-23T01:45:52.665Z,1029.98
2023-01-23T01:46:52.216Z,1029.99
2023-01-23T01:47:51.665Z,1029.99
2023-01-23T01:48:51.927Z,1030.00
2023-01-23T01:49:50.903Z,1030.02
2023-01-23T01:50:50.950Z,1030.04
2023-01-23T01:51:50.753Z,1030.02
2023-01-23T01:52:51.672Z,1029.98
2023-01-23T01:53:50.805Z,1030.04
2023-01-23T01:54:53.182Z,1030.03
2023-01-23T01:55:50.753Z,1030.05
2023-01-23T01:56:53.696Z,1030.02
2023-01-23T01:57:54.672Z,1030.06
2023-01-23T01:58:55.694Z,1029.99
2023-01-23T01:59:50.979Z,1030.07
2023-01-23T02:00:51.205Z,1030.02
2023-01-23T02:01:50.787Z,1029.99
2023-01-23T02:02:50.730Z,1030.04
2023-01-23T02:03:50.815Z,1030.05
2023-01-23T02:04:51.179Z,1030.01
2023-01-23T02:05:51.182Z,1030.05
2023-01-23T02:06:50.757Z,1030.09
2023-01-23T02:07:50.717Z,1030.09
2023-01-23T02:08:55.173Z,1030.06
2023-01-23T02:09:51.329Z,1030.07
2023-01-23T02:10:54.668Z,1030.07
2023-01-23T02:11:53.579Z,1030.06
2023-01-23T02:13:52.667Z,1030.11
2023-01-23T02:14:53.417Z,1030.06
2023-01-23T02:15:50.850Z,1030.03
2023-01-23T02:16:52.474Z,1030.04
2023-01-23T02:17:55.171Z,1030.02
2023-01-23T02:18:53.223Z,1029.95
2023-01-23T02:19:57.177Z,1030.00
2023-01-23T02:20:54.764Z,1030.02
2023-01-23T02:21:53.673Z,1030.01
2023-01-23T02:22:50.848Z,1030.03
2023-01-23T02:23:52.727Z,1030.03
2023-01-23T02:24:51.724Z,1030.04
2023-01-23T02:25:52.200Z,1030.04
2023-01-23T02:26:50.733Z,1030.05
2023-01-23T02:27:50.643Z,1030.01
2023-01-23T02:28:51.177Z,1030.00
2023-01-23T02:29:50.627Z,1029.98
2023-01-23T02:30:51.206Z,1030.04
2023-01-23T02:31:51.193Z,1030.04
2023-01-23T02:32:52.194Z,1030.02
2023-01-23T02:33:54.255Z,1030.04
2023-01-23T02:34:51.172Z,1030.00
2023-01-23T02:35:53.821Z,1030.02
2023-01-23T02:36:52.173Z,1030.04
2023-01-23T02:37:53.508Z,1030.06
2023-01-23T02:38:50.632Z,1030.02
2023-01-23T02:39:51.689Z,1030.10
2023-01-23T02:40:52.174Z,1030.06
2023-01-23T02:41:54.170Z,1030.07
2023-01-23T02:42:54.675Z,1030.12
2023-01-23T02:43:52.694Z,1030.07
2023-01-23T02:44:51.180Z,1030.11
2023-01-23T02:45:53.233Z,1030.13
2023-01-23T02:46:53.407Z,1030.14
2023-01-23T02:47:53.203Z,1030.14
2023-01-23T02:48:51.735Z,1030.18
2023-01-23T02:49:54.174Z,1030.18
2023-01-23T02:50:52.234Z,1030.21
2023-01-23T02:51:52.179Z,1030.16
2023-01-23T02:52:53.088Z,1030.21
2023-01-23T02:53:50.544Z,1030.23
2023-01-23T02:54:51.841Z,1030.26
2023-01-23T02:55:55.679Z,1030.28
2023-01-23T02:56:54.519Z,1030.25
2023-01-23T02:57:53.675Z,1030.29
2023-01-23T02:58:52.677Z,1030.27
2023-01-23T02:59:50.614Z,1030.26
2023-01-23T03:00:51.251Z,1030.33
2023-01-23T03:01:50.679Z,1030.30
2023-01-23T03:02:52.678Z,1030.32
2023-01-23T03:03:50.432Z,1030.30
2023-01-23T03:04:51.181Z,1030.32
2023-01-23T03:05:53.683Z,1030.34
2023-01-23T03:06:55.208Z,1030.33
2023-01-23T03:07:51.179Z,1030.35
2023-01-23T03:08:50.474Z,1030.31
2023-01-23T03:09:51.685Z,1030.43
2023-01-23T03:10:53.183Z,1030.35
2023-01-23T03:11:50.569Z,1030.39
2023-01-23T03:12:51.224Z,1030.41
2023-01-23T03:13:50.460Z,1030.36
2023-01-23T03:14:56.270Z,1030.42
2023-01-23T03:15:50.606Z,1030.35
2023-01-23T03:16:50.407Z,1030.36
2023-01-23T03:17:50.431Z,1030.42
2023-01-23T03:18:54.808Z,1030.36
2023-01-23T03:19:51.467Z,1030.40
2023-01-23T03:20:51.501Z,1030.41
2023-01-23T03:21:50.315Z,1030.39
2023-01-23T03:22:50.322Z,1030.44
2023-01-23T03:23:50.316Z,1030.42
2023-01-23T03:24:50.399Z,1030.46
2023-01-23T03:25:50.322Z,1030.45
2023-01-23T03:26:51.204Z,1030.47
2023-01-23T03:27:50.371Z,1030.51
2023-01-23T03:28:50.357Z,1030.49
2023-01-23T03:30:02.284Z,1030.48
2023-01-23T03:32:30.744Z,1030.55
2023-01-23T03:33:40.336Z,1030.54
2023-01-23T03:34:30.631Z,1030.55
2023-01-23T03:35:30.740Z,1030.56
2023-01-23T03:36:43.379Z,1030.56
2023-01-23T03:37:31.319Z,1030.54
2023-01-23T03:38:30.644Z,1030.61
2023-01-23T03:39:30.620Z,1030.61
2023-01-23T03:42:41.251Z,1030.59
2023-01-23T03:43:41.266Z,1030.61
2023-01-23T03:44:53.861Z,1030.65
2023-01-23T03:45:41.301Z,1030.63
2023-01-23T03:46:50.373Z,1030.62
2023-01-23T03:47:41.298Z,1030.64
2023-01-23T03:48:51.839Z,1030.62
2023-01-23T03:49:52.459Z,1030.71
2023-01-23T03:50:41.207Z,1030.67
2023-01-23T03:51:50.493Z,1030.69
2023-01-23T03:52:50.515Z,1030.70
2023-01-23T03:53:41.185Z,1030.70
2023-01-23T03:54:51.099Z,1030.71
2023-01-23T03:55:49.600Z,1030.71
2023-01-23T03:56:41.186Z,1030.71
2023-01-23T03:57:41.152Z,1030.73
2023-01-23T03:58:50.625Z,1030.78
2023-01-23T03:59:53.657Z,1030.76
2023-01-23T04:00:53.706Z,1030.75
2023-01-23T04:01:48.756Z,1030.78
2023-01-23T04:02:41.225Z,1030.76
2023-01-23T04:03:51.841Z,1030.75
2023-01-23T04:06:44.762Z,1030.80
2023-01-23T04:09:24.104Z,1030.83
2023-01-23T04:12:16.585Z,1030.85
2023-01-23T04:13:17.601Z,1030.84
2023-01-23T04:14:17.612Z,1030.89
2023-01-23T04:16:49.550Z,1030.90
2023-01-23T04:17:58.072Z,1030.89
2023-01-23T04:18:58.702Z,1030.90
2023-01-23T04:19:59.647Z,1030.93
2023-01-23T04:20:59.750Z,1030.97
2023-01-23T04:21:58.020Z,1030.95
2023-01-23T04:24:38.037Z,1030.96
2023-01-23T04:25:38.645Z,1030.97
2023-01-23T04:26:39.722Z,1030.98
2023-01-23T04:27:37.719Z,1030.99
2023-01-23T04:28:38.996Z,1030.94
2023-01-23T04:29:38.295Z,1031.03
2023-01-23T04:32:21.197Z,1030.93
2023-01-23T04:34:50.614Z,1030.91
2023-01-23T04:36:01.158Z,1030.96
2023-01-23T04:36:50.532Z,1030.96
2023-01-23T04:38:00.682Z,1030.96
2023-01-23T04:38:58.726Z,1030.94
2023-01-23T04:39:59.267Z,1030.92
2023-01-23T04:41:00.803Z,1030.91
2023-01-23T04:42:01.338Z,1030.93
2023-01-23T04:42:50.566Z,1030.88
2023-01-23T04:44:02.852Z,1030.90
2023-01-23T04:45:01.542Z,1030.94
2023-01-23T04:45:58.121Z,1030.94
2023-01-23T04:46:50.423Z,1030.96
2023-01-23T04:51:13.346Z,1030.95
2023-01-23T04:52:24.796Z,1031.00
2023-01-23T04:58:17.297Z,1031.12
2023-01-23T04:59:31.958Z,1031.08
2023-01-23T05:00:29.942Z,1031.11
2023-01-23T05:01:17.278Z,1031.04
2023-01-23T05:02:29.538Z,1031.06
2023-01-23T05:03:27.363Z,1031.06
2023-01-23T05:04:28.062Z,1031.05
2023-01-23T05:05:29.180Z,1031.07
2023-01-23T05:06:17.298Z,1031.06
2023-01-23T05:10:04.492Z,1030.99
2023-01-23T05:11:05.594Z,1031.02
2023-01-23T05:12:04.895Z,1031.01
2023-01-23T05:14:46.912Z,1030.99
2023-01-23T05:15:58.161Z,1030.97
2023-01-23T05:16:56.091Z,1030.98
2023-01-23T05:17:46.894Z,1030.93
2023-01-23T05:18:57.616Z,1030.97
2023-01-23T05:19:55.704Z,1030.96
2023-01-23T05:20:57.293Z,1031.00
2023-01-23T05:21:46.946Z,1031.01
2023-01-23T05:22:46.846Z,1031.02
2023-01-23T05:25:47.083Z,1031.02
2023-01-23T05:26:48.934Z,1031.01
2023-01-23T05:27:48.989Z,1031.06
2023-01-23T05:28:46.481Z,1031.08
2023-01-23T05:29:50.061Z,1031.03
2023-01-23T05:30:51.665Z,1031.04
2023-01-23T05:31:38.679Z,1031.08
2023-01-23T05:32:51.609Z,1031.07
2023-01-23T05:33:47.144Z,1031.10
2023-01-23T05:34:47.689Z,1031.14
2023-01-23T05:35:38.396Z,1031.09
2023-01-23T05:38:20.669Z,1031.13
2023-01-23T05:39:20.572Z,1031.09
2023-01-23T05:40:29.875Z,1031.12
2023-01-23T05:41:28.145Z,1031.08
2023-01-23T05:42:20.566Z,1031.06
2023-01-23T05:43:20.661Z,1031.09
2023-01-23T05:44:20.556Z,1031.05
2023-01-23T05:45:20.523Z,1031.08
2023-01-23T05:46:31.129Z,1031.07
2023-01-23T05:47:20.521Z,1031.05
2023-01-23T05:48:20.526Z,1031.07
2023-01-23T05:51:17.460Z,1031.11
2023-01-23T05:52:17.432Z,1031.12
2023-01-23T05:53:17.423Z,1031.16
2023-01-23T05:54:27.598Z,1031.16
2023-01-23T05:55:17.394Z,1031.21
2023-01-23T05:56:17.455Z,1031.16
2023-01-23T05:57:17.576Z,1031.22
2023-01-23T05:58:17.411Z,1031.20
2023-01-23T05:59:28.517Z,1031.27
2023-01-23T06:00:26.536Z,1031.27
2023-01-23T06:01:30.617Z,1031.31
2023-01-23T06:02:17.408Z,1031.28
2023-01-23T06:03:17.407Z,1031.35
2023-01-23T06:07:40.611Z,1031.38
2023-01-23T06:08:40.602Z,1031.39
2023-01-23T06:09:51.817Z,1031.42
2023-01-23T06:10:40.588Z,1031.46
2023-01-23T06:13:34.668Z,1031.47
2023-01-23T06:16:16.353Z,1031.50
2023-01-23T06:17:30.909Z,1031.53
2023-01-23T06:20:30.060Z,1031.51
2023-01-23T06:21:30.045Z,1031.53
2023-01-23T06:22:31.504Z,1031.58
2023-01-23T06:23:30.012Z,1031.54
2023-01-23T06:24:30.001Z,1031.58
2023-01-23T06:25:30.113Z,1031.51
2023-01-23T06:26:29.998Z,1031.51
2023-01-23T06:27:30.007Z,1031.52
2023-01-23T06:28:29.993Z,1031.50
2023-01-23T06:29:30.004Z,1031.49
2023-01-23T06:30:29.990Z,1031.53
2023-01-23T06:31:30.108Z,1031.51
2023-01-23T06:32:29.975Z,1031.54
2023-01-23T06:33:29.962Z,1031.59
2023-01-23T06:34:29.990Z,1031.55
2023-01-23T06:35:29.954Z,1031.62
2023-01-23T06:36:29.939Z,1031.59
2023-01-23T06:37:29.957Z,1031.61
2023-01-23T06:38:29.935Z,1031.65
2023-01-23T06:39:29.921Z,1031.65
2023-01-23T06:40:29.921Z,1031.65
2023-01-23T06:41:30.034Z,1031.69
2023-01-23T06:42:29.911Z,1031.70
2023-01-23T06:43:29.898Z,1031.68
2023-01-23T06:44:29.899Z,1031.72
2023-01-23T06:45:29.893Z,1031.72
2023-01-23T06:46:29.932Z,1031.77
2023-01-23T06:47:29.904Z,1031.72
2023-01-23T06:48:29.921Z,1031.76
2023-01-23T06:49:29.882Z,1031.75
2023-01-23T06:50:29.877Z,1031.76
2023-01-23T06:51:29.867Z,1031.80
2023-01-23T06:52:29.850Z,1031.79
2023-01-23T06:53:29.891Z,1031.79
2023-01-23T06:54:29.876Z,1031.80
2023-01-23T06:55:29.843Z,1031.82
2023-01-23T06:56:29.869Z,1031.78
2023-01-23T06:57:29.925Z,1031.82
2023-01-23T06:58:29.834Z,1031.77
2023-01-23T06:59:29.837Z,1031.75
2023-01-23T07:00:29.831Z,1031.73
2023-01-23T07:01:29.848Z,1031.71
2023-01-23T07:02:29.883Z,1031.77
2023-01-23T07:03:29.810Z,1031.75
2023-01-23T07:04:29.811Z,1031.76
2023-01-23T07:05:29.811Z,1031.82
2023-01-23T07:06:29.792Z,1031.80
2023-01-23T07:07:29.798Z,1031.83
2023-01-23T07:08:29.793Z,1031.82
2023-01-23T07:09:29.807Z,1031.82
2023-01-23T07:10:29.885Z,1031.80
2023-01-23T07:11:29.771Z,1031.81
2023-01-23T07:12:29.795Z,1031.83
2023-01-23T07:13:29.852Z,1031.84
2023-01-23T07:14:29.775Z,1031.81
2023-01-23T07:15:29.772Z,1031.79
2023-01-23T07:16:29.868Z,1031.86
2023-01-23T07:17:29.760Z,1031.86
2023-01-23T07:18:29.746Z,1031.88
2023-01-23T07:19:29.752Z,1031.88
2023-01-23T07:20:29.838Z,1031.95
2023-01-23T07:21:29.737Z,1031.98
2023-01-23T07:22:29.733Z,1031.99
2023-01-23T07:23:29.746Z,1032.00
2023-01-23T07:24:29.707Z,1031.98
2023-01-23T07:25:29.716Z,1032.01
2023-01-23T07:26:29.760Z,1032.04
2023-01-23T07:27:29.707Z,1032.03
2023-01-23T07:28:29.707Z,1032.02
2023-01-23T07:29:29.792Z,1031.95
2023-01-23T07:30:29.805Z,1032.00
2023-01-23T07:31:29.726Z,1031.99
2023-01-23T07:32:29.713Z,1031.98
2023-01-23T07:33:29.734Z,1032.01
2023-01-23T07:34:29.683Z,1032.03
2023-01-23T07:35:29.739Z,1032.04
2023-01-23T07:36:29.665Z,1032.05
2023-01-23T07:37:29.718Z,1032.04
2023-01-23T07:38:29.647Z,1032.01
2023-01-23T07:39:29.655Z,1032.03
2023-01-23T07:40:29.656Z,1032.05
2023-01-23T07:41:29.713Z,1031.96
2023-01-23T07:42:29.675Z,1031.98
2023-01-23T07:43:29.656Z,1031.96
2023-01-23T07:44:29.640Z,1031.94
2023-01-23T07:45:29.712Z,1032.00
2023-01-23T07:46:29.658Z,1031.98
2023-01-23T07:47:29.608Z,1032.04
2023-01-23T07:48:29.676Z,1032.06
2023-01-23T07:49:29.604Z,1032.06
2023-01-23T07:50:29.603Z,1032.05
2023-01-23T07:51:29.639Z,1032.08
2023-01-23T07:52:29.581Z,1032.09
2023-01-23T07:53:29.596Z,1032.09
2023-01-23T07:54:29.579Z,1032.12
2023-01-23T07:55:29.586Z,1032.08
2023-01-23T07:56:29.568Z,1032.06
2023-01-23T07:57:29.576Z,1032.08
2023-01-23T07:58:29.580Z,1032.10
2023-01-23T07:59:29.572Z,1032.09
2023-01-23T08:00:30.155Z,1032.16
2023-01-23T08:01:29.643Z,1032.11
2023-01-23T08:02:29.539Z,1032.12
2023-01-23T08:03:29.590Z,1032.13
2023-01-23T08:04:29.583Z,1032.12
2023-01-23T08:05:29.542Z,1032.12
2023-01-23T08:06:29.531Z,1032.13
2023-01-23T08:07:29.537Z,1032.16
2023-01-23T08:08:29.537Z,1032.14
2023-01-23T08:09:29.530Z,1032.10
2023-01-23T08:10:29.532Z,1032.12
2023-01-23T08:11:29.508Z,1032.12
2023-01-23T08:12:29.523Z,1032.12
2023-01-23T08:13:29.517Z,1032.12
2023-01-23T08:14:29.526Z,1032.15
2023-01-23T08:15:29.487Z,1032.13
2023-01-23T08:16:29.617Z,1032.10
2023-01-23T08:17:29.580Z,1032.16
2023-01-23T08:18:29.477Z,1032.13
2023-01-23T08:19:29.470Z,1032.20
2023-01-23T08:20:29.466Z,1032.19
2023-01-23T08:21:29.476Z,1032.21
2023-01-23T08:22:29.475Z,1032.22
2023-01-23T08:23:29.441Z,1032.23
2023-01-23T08:24:29.477Z,1032.20
2023-01-23T08:25:29.464Z,1032.28
2023-01-23T08:26:29.451Z,1032.29
2023-01-23T08:27:29.436Z,1032.29
2023-01-23T08:28:29.528Z,1032.33
2023-01-23T08:29:29.437Z,1032.31
2023-01-23T08:30:29.449Z,1032.33
2023-01-23T08:31:29.516Z,1032.29
2023-01-23T08:32:29.446Z,1032.33
2023-01-23T08:33:29.535Z,1032.32
2023-01-23T08:34:29.410Z,1032.32
2023-01-23T08:35:29.917Z,1032.39
2023-01-23T08:36:29.399Z,1032.42
2023-01-23T08:37:29.405Z,1032.40
2023-01-23T08:38:29.393Z,1032.42
2023-01-23T08:39:29.540Z,1032.46
2023-01-23T08:40:29.401Z,1032.48
2023-01-23T08:41:30.238Z,1032.46
2023-01-23T08:42:29.481Z,1032.51
2023-01-23T08:43:29.397Z,1032.56
2023-01-23T08:44:29.349Z,1032.54
2023-01-23T08:45:29.383Z,1032.53
2023-01-23T08:46:29.355Z,1032.57
2023-01-23T08:47:29.356Z,1032.62
2023-01-23T08:48:29.370Z,1032.61
2023-01-23T08:49:29.438Z,1032.63
2023-01-23T08:50:29.402Z,1032.62
2023-01-23T08:51:29.478Z,1032.66
2023-01-23T08:52:29.993Z,1032.67
2023-01-23T08:53:29.322Z,1032.62
2023-01-23T08:54:29.396Z,1032.71
2023-01-23T08:55:29.354Z,1032.73
2023-01-23T08:56:29.428Z,1032.77
2023-01-23T08:57:29.930Z,1032.76
2023-01-23T08:58:29.301Z,1032.81
2023-01-23T08:59:29.287Z,1032.82
2023-01-23T09:00:29.315Z,1032.83
2023-01-23T09:01:29.398Z,1032.81
2023-01-23T09:02:29.372Z,1032.84
2023-01-23T09:03:29.454Z,1032.80
2023-01-23T09:04:29.313Z,1032.80
2023-01-23T09:05:29.421Z,1032.79
2023-01-23T09:06:29.391Z,1032.83
2023-01-23T09:07:30.162Z,1032.86
2023-01-23T09:08:29.280Z,1032.89
2023-01-23T09:09:29.331Z,1032.93
2023-01-23T09:18:50.547Z,1033.07
2023-01-23T09:19:29.081Z,1033.07
2023-01-23T09:20:30.072Z,1033.09
2023-01-23T09:21:33.495Z,1033.08
2023-01-23T09:22:30.878Z,1033.08
2023-01-23T09:23:28.925Z,1033.14
2023-01-23T09:24:28.913Z,1033.16
2023-01-23T09:29:19.442Z,1033.20
2023-01-23T09:30:19.503Z,1033.17
2023-01-23T09:31:19.197Z,1033.20
2023-01-23T09:32:19.207Z,1033.21
2023-01-23T09:33:19.153Z,1033.24
2023-01-23T09:34:19.208Z,1033.17
2023-01-23T09:35:19.144Z,1033.26
2023-01-23T09:36:19.669Z,1033.24
2023-01-23T09:37:19.272Z,1033.26
2023-01-23T09:38:19.088Z,1033.28
2023-01-23T09:39:20.056Z,1033.32
2023-01-23T09:40:22.485Z,1033.29
2023-01-23T09:41:19.968Z,1033.31
2023-01-23T09:42:20.273Z,1033.34
2023-01-23T09:43:20.428Z,1033.33
2023-01-23T09:44:19.083Z,1033.27
2023-01-23T09:45:22.950Z,1033.30
2023-01-23T09:46:20.991Z,1033.25
2023-01-23T09:47:22.944Z,1033.28
2023-01-23T09:48:19.982Z,1033.26
2023-01-23T09:49:20.172Z,1033.30
2023-01-23T09:50:21.225Z,1033.27
2023-01-23T09:51:22.193Z,1033.24
2023-01-23T09:52:20.475Z,1033.29
2023-01-23T09:53:20.064Z,1033.25
2023-01-23T09:54:23.447Z,1033.23
2023-01-23T09:55:19.933Z,1033.17
2023-01-23T09:56:19.246Z,1033.19
2023-01-23T09:57:19.106Z,1033.24
2023-01-23T09:58:20.559Z,1033.22
2023-01-23T09:59:19.101Z,1033.18
2023-01-23T10:00:19.397Z,1033.25
2023-01-23T10:01:19.382Z,1033.25
2023-01-23T10:02:19.199Z,1033.23
2023-01-23T10:03:19.937Z,1033.27
2023-01-23T10:04:19.043Z,1033.30
2023-01-23T10:05:19.041Z,1033.33
2023-01-23T10:06:19.937Z,1033.29
2023-01-23T10:07:19.458Z,1033.33
2023-01-23T10:08:18.981Z,1033.32
2023-01-23T10:09:22.560Z,1033.32
2023-01-23T10:10:19.009Z,1033.33
2023-01-23T10:11:18.993Z,1033.29
2023-01-23T10:12:19.437Z,1033.37
2023-01-23T10:13:19.126Z,1033.36
2023-01-23T10:24:54.029Z,1033.36
2023-01-23T10:25:53.659Z,1033.35
2023-01-23T10:26:54.936Z,1033.35
2023-01-23T10:27:53.576Z,1033.36
2023-01-23T10:28:53.570Z,1033.39
2023-01-23T10:29:53.600Z,1033.38
2023-01-23T10:30:53.351Z,1033.40
2023-01-23T10:31:52.868Z,1033.40
2023-01-23T10:38:27.222Z,1033.34
2023-01-23T10:39:23.238Z,1033.38
2023-01-23T10:40:22.763Z,1033.40
2023-01-23T11:33:52.615Z,1033.07
2023-01-23T11:34:52.604Z,1033.09
2023-01-23T11:35:52.620Z,1033.09
2023-01-23T11:36:53.390Z,1033.09
2023-01-23T11:37:52.546Z,1033.08
2023-01-23T11:38:53.387Z,1033.09
2023-01-23T11:39:53.583Z,1033.10
2023-01-23T11:58:21.370Z,1033.01
2023-01-23T11:59:21.532Z,1033.07
2023-01-23T12:00:20.964Z,1033.00
2023-01-23T12:01:20.730Z,1032.99
2023-01-23T12:02:21.706Z,1032.98
2023-01-23T12:03:23.639Z,1032.98
2023-01-23T12:04:20.694Z,1032.97
2023-01-23T12:05:21.010Z,1032.96
2023-01-23T12:38:12.411Z,1032.79
2023-01-23T12:39:10.386Z,1032.78
2023-01-23T12:40:10.023Z,1032.77
2023-01-23T12:41:10.195Z,1032.79
2023-01-23T12:42:09.439Z,1032.76
2023-01-23T12:43:09.389Z,1032.78
2023-01-23T12:44:08.834Z,1032.78
2023-01-23T12:45:09.539Z,1032.80
2023-01-23T12:46:10.234Z,1032.77
2023-01-23T12:47:08.775Z,1032.72
2023-01-23T12:48:10.232Z,1032.73
2023-01-23T12:49:11.159Z,1032.70
2023-01-23T12:50:10.458Z,1032.70
2023-01-23T12:51:11.428Z,1032.66
2023-01-23T12:52:13.922Z,1032.70
2023-01-23T12:53:12.250Z,1032.69
2023-01-23T12:54:10.391Z,1032.63
2023-01-23T12:55:11.927Z,1032.61
2023-01-23T12:56:09.498Z,1032.65
2023-01-23T12:57:09.862Z,1032.67
2023-01-23T12:58:10.407Z,1032.64
2023-01-23T12:59:09.437Z,1032.60
2023-01-23T13:00:09.361Z,1032.62
2023-01-23T13:01:09.372Z,1032.62
2023-01-23T13:02:09.502Z,1032.61
2023-01-23T13:03:09.411Z,1032.65
2023-01-23T13:04:09.458Z,1032.67
2023-01-23T13:05:09.397Z,1032.68
2023-01-23T13:06:09.291Z,1032.75
2023-01-23T13:07:09.466Z,1032.76
2023-01-23T13:08:09.434Z,1032.71
2023-01-23T13:09:17.776Z,1032.73
2023-01-23T13:10:08.601Z,1032.78
2023-01-23T13:11:08.983Z,1032.76
2023-01-23T13:12:08.582Z,1032.83
2023-01-23T13:13:08.545Z,1032.81
2023-01-23T13:14:08.549Z,1032.82
2023-01-23T13:15:14.157Z,1032.79
2023-01-23T13:16:08.557Z,1032.86
2023-01-23T13:17:08.567Z,1032.84
2023-01-23T13:18:08.570Z,1032.83
2023-01-23T13:19:08.526Z,1032.85
2023-01-23T13:20:08.531Z,1032.85
2023-01-23T13:21:08.511Z,1032.84
2023-01-23T13:22:09.475Z,1032.84
2023-01-23T13:23:08.532Z,1032.88
2023-01-23T13:24:08.532Z,1032.88
2023-01-23T13:25:08.606Z,1032.86
2023-01-23T13:26:08.494Z,1032.86
2023-01-23T13:27:08.492Z,1032.88
2023-01-23T13:28:08.511Z,1032.89
2023-01-23T13:29:08.487Z,1032.87
2023-01-23T13:30:08.492Z,1032.89
2023-01-23T13:31:08.533Z,1032.92
2023-01-23T13:32:08.568Z,1032.91
2023-01-23T13:33:08.513Z,1032.90
2023-01-23T13:34:15.587Z,1032.89
2023-01-23T13:35:08.487Z,1032.91
2023-01-23T13:36:08.461Z,1032.94
2023-01-23T13:37:08.464Z,1032.91
2023-01-23T13:38:08.475Z,1032.92
2023-01-23T13:39:08.478Z,1032.96
2023-01-23T13:40:08.454Z,1032.96
2023-01-23T13:41:08.543Z,1032.90
2023-01-23T13:42:08.465Z,1032.87
2023-01-23T13:43:08.434Z,1032.93
2023-01-23T13:44:08.426Z,1032.91
2023-01-23T13:45:08.444Z,1032.91
2023-01-23T13:46:08.436Z,1032.86
2023-01-23T13:47:08.421Z,1032.89
2023-01-23T13:48:08.427Z,1032.91
2023-01-23T13:49:08.459Z,1032.87
2023-01-23T13:50:08.417Z,1032.89
2023-01-23T13:51:08.390Z,1032.85
2023-01-23T13:52:08.408Z,1032.85
2023-01-23T13:53:08.409Z,1032.87
2023-01-23T13:54:08.422Z,1032.81
2023-01-23T13:55:08.455Z,1032.89
2023-01-23T13:56:08.400Z,1032.85
2023-01-23T13:57:08.463Z,1032.84
2023-01-23T13:58:08.373Z,1032.84
2023-01-23T13:59:08.401Z,1032.85
2023-01-23T14:00:08.393Z,1032.86
2023-01-23T14:01:08.370Z,1032.84
2023-01-23T14:02:08.352Z,1032.87
2023-01-23T14:03:08.357Z,1032.84
2023-01-23T14:04:08.351Z,1032.82
2023-01-23T14:05:08.366Z,1032.87
2023-01-23T14:06:08.354Z,1032.85
2023-01-23T14:07:08.342Z,1032.87
2023-01-23T14:08:08.342Z,1032.87
2023-01-23T14:09:08.320Z,1032.92
2023-01-23T14:10:08.343Z,1032.93
2023-01-23T14:11:08.345Z,1032.94
2023-01-23T14:12:08.310Z,1032.96
2023-01-23T14:13:08.410Z,1032.97
2023-01-23T14:14:08.310Z,1033.01
2023-01-23T14:15:08.310Z,1032.95
2023-01-23T14:16:08.339Z,1032.97
2023-01-23T14:17:08.322Z,1032.98
2023-01-23T14:18:08.287Z,1032.99
2023-01-23T14:19:08.283Z,1032.96
2023-01-23T14:20:08.281Z,1032.93
2023-01-23T14:21:08.339Z,1032.94
2023-01-23T14:22:08.285Z,1032.92
2023-01-23T14:23:08.311Z,1032.96
2023-01-23T14:24:08.299Z,1032.92
2023-01-23T14:25:08.299Z,1032.94
2023-01-23T14:26:08.300Z,1032.96
2023-01-23T14:27:08.527Z,1032.99
2023-01-23T14:28:08.256Z,1032.94
2023-01-23T14:29:08.333Z,1033.02
2023-01-23T14:30:08.237Z,1033.02
2023-01-23T14:31:08.262Z,1033.03
2023-01-23T14:32:08.364Z,1033.03
2023-01-23T14:33:08.242Z,1032.98
2023-01-23T14:34:10.718Z,1032.97
2023-01-23T14:35:08.277Z,1033.07
2023-01-23T14:36:08.220Z,1033.02
2023-01-23T14:37:08.213Z,1033.07
2023-01-23T14:38:08.222Z,1033.05
2023-01-23T14:39:08.202Z,1033.03
2023-01-23T14:40:12.207Z,1033.01
2023-01-23T14:41:08.211Z,1033.05
2023-01-23T14:42:16.537Z,1033.02
2023-01-23T14:43:08.197Z,1033.05
2023-01-23T14:44:08.199Z,1033.05
2023-01-23T14:45:08.269Z,1033.07
2023-01-23T14:46:08.272Z,1033.08
2023-01-23T14:47:08.247Z,1033.05
2023-01-23T14:48:08.193Z,1033.05
2023-01-23T14:49:08.209Z,1033.02
2023-01-23T14:50:08.183Z,1033.07
2023-01-23T14:51:08.147Z,1033.03
2023-01-23T14:52:08.154Z,1033.07
2023-01-23T14:53:08.203Z,1033.05
2023-01-23T14:54:10.868Z,1033.08
2023-01-23T14:55:08.622Z,1033.06
2023-01-23T14:56:08.164Z,1033.03
2023-01-23T14:57:08.133Z,1033.09
2023-01-23T14:58:08.184Z,1033.14
2023-01-23T14:59:08.134Z,1033.18
2023-01-23T15:00:08.146Z,1033.17
2023-01-23T15:01:08.169Z,1033.22
2023-01-23T15:02:20.227Z,1033.19
2023-01-23T15:03:08.229Z,1033.19